createdAt,value
2018-07-21T00:00:43.330Z,0.00
2018-07-21T00:01:43.519Z,0.00
2018-07-21T00:02:43.689Z,0.00
2018-07-21T00:03:43.871Z,0.00
2018-07-21T00:04:44.052Z,0.00
2018-07-21T00:05:44.232Z,0.00
2018-07-21T00:06:44.407Z,0.00
2018-07-21T00:07:44.584Z,0.00
2018-07-21T00:08:46.815Z,0.00
2018-07-21T00:09:48.062Z,0.00
2018-07-21T00:10:48.264Z,0.00
2018-07-21T00:11:45.380Z,0.00
2018-07-21T00:12:49.027Z,0.00
2018-07-21T00:13:47.813Z,0.00
2018-07-21T00:14:49.852Z,0.00
2018-07-21T00:15:47.966Z,0.00
2018-07-21T00:16:48.369Z,0.00
2018-07-21T00:17:50.616Z,0.00
2018-07-21T00:18:46.352Z,0.00
2018-07-21T00:19:46.530Z,0.00
2018-07-21T00:20:46.709Z,0.00
2018-07-21T00:21:46.892Z,0.00
2018-07-21T00:22:47.077Z,0.00
2018-07-21T00:23:47.250Z,0.00
2018-07-21T00:24:47.432Z,0.00
2018-07-21T00:25:47.602Z,0.00
2018-07-21T00:26:47.790Z,0.00
2018-07-21T00:27:47.967Z,0.00
2018-07-21T00:28:48.138Z,0.00
2018-07-21T00:29:48.317Z,0.00
2018-07-21T00:30:48.489Z,0.00
2018-07-21T00:31:48.661Z,0.00
2018-07-21T00:32:48.846Z,0.00
2018-07-21T00:33:49.020Z,0.00
2018-07-21T00:34:49.194Z,0.00
2018-07-21T00:35:49.375Z,0.00
2018-07-21T00:36:49.549Z,0.00
2018-07-21T00:37:49.723Z,0.00
2018-07-21T00:38:49.915Z,0.00
2018-07-21T00:39:50.092Z,0.00
2018-07-21T00:40:50.263Z,0.00
2018-07-21T00:41:50.442Z,0.00
2018-07-21T00:42:50.658Z,0.00
2018-07-21T00:43:50.830Z,0.00
2018-07-21T00:44:51.008Z,0.00
2018-07-21T00:45:51.185Z,0.00
2018-07-21T00:46:51.365Z,0.00
2018-07-21T00:47:51.544Z,0.00
2018-07-21T00:48:51.718Z,0.00
2018-07-21T00:49:51.899Z,0.00
2018-07-21T00:50:52.075Z,0.00
2018-07-21T00:51:52.251Z,0.00
2018-07-21T00:52:52.433Z,0.00
2018-07-21T00:53:52.612Z,0.00
2018-07-21T00:54:52.795Z,0.00
2018-07-21T00:55:52.969Z,0.00
2018-07-21T00:56:53.147Z,0.00
2018-07-21T00:57:53.325Z,0.00
2018-07-21T00:58:53.510Z,0.00
2018-07-21T00:59:53.690Z,0.00
2018-07-21T01:00:53.871Z,0.00
2018-07-21T01:01:54.045Z,0.00
2018-07-21T01:02:54.223Z,0.00
2018-07-21T01:03:54.400Z,0.00
2018-07-21T01:04:54.579Z,0.00
2018-07-21T01:05:54.758Z,0.00
2018-07-21T01:06:54.937Z,0.00
2018-07-21T01:07:55.113Z,0.00
2018-07-21T01:08:55.290Z,0.00
2018-07-21T01:09:55.467Z,0.00
2018-07-21T01:10:55.745Z,0.00
2018-07-21T01:11:55.814Z,0.00
2018-07-21T01:12:55.987Z,0.00
2018-07-21T01:13:56.164Z,0.00
2018-07-21T01:14:56.344Z,0.00
2018-07-21T01:15:56.525Z,0.00
2018-07-21T01:16:56.703Z,0.00
2018-07-21T01:17:56.885Z,0.00
2018-07-21T01:18:57.056Z,0.00
2018-07-21T01:19:57.235Z,0.00
2018-07-21T01:20:57.410Z,0.00
2018-07-21T01:21:57.582Z,0.00
2018-07-21T01:22:57.759Z,0.00
2018-07-21T01:23:57.926Z,0.00
2018-07-21T01:24:58.108Z,0.00
2018-07-21T01:25:58.278Z,0.00
2018-07-21T01:26:58.464Z,0.00
2018-07-21T01:27:58.637Z,0.00
2018-07-21T01:28:58.816Z,0.00
2018-07-21T01:29:58.991Z,0.00
2018-07-21T01:30:59.165Z,0.00
2018-07-21T01:31:59.353Z,0.00
2018-07-21T01:32:59.529Z,0.00
2018-07-21T01:33:59.706Z,0.00
2018-07-21T01:34:59.887Z,0.00
2018-07-21T01:36:00.063Z,0.00
2018-07-21T01:37:00.238Z,0.00
2018-07-21T01:38:00.411Z,0.00
2018-07-21T01:39:00.589Z,0.00
2018-07-21T01:40:00.768Z,0.00
2018-07-21T01:41:00.952Z,0.00
2018-07-21T01:42:01.132Z,0.00
2018-07-21T01:43:01.311Z,0.00
2018-07-21T01:44:01.486Z,0.00
2018-07-21T01:45:01.666Z,0.00
2018-07-21T01:46:01.855Z,0.00
2018-07-21T01:47:02.046Z,0.00
2018-07-21T01:48:02.221Z,0.00
2018-07-21T01:49:02.405Z,0.00
2018-07-21T01:50:02.585Z,0.00
2018-07-21T01:51:02.771Z,0.00
2018-07-21T01:52:02.941Z,0.00
2018-07-21T01:53:03.114Z,0.00
2018-07-21T01:54:03.294Z,0.00
2018-07-21T01:55:03.473Z,0.00
2018-07-21T01:56:03.650Z,0.00
2018-07-21T01:57:03.817Z,0.00
2018-07-21T01:58:04.000Z,0.00
2018-07-21T01:59:04.175Z,0.00
2018-07-21T02:00:04.357Z,0.00
2018-07-21T02:01:04.534Z,0.00
2018-07-21T02:02:04.705Z,0.00
2018-07-21T02:03:04.896Z,0.00
2018-07-21T02:04:05.076Z,0.00
2018-07-21T02:05:05.253Z,0.00
2018-07-21T02:06:05.433Z,0.00
2018-07-21T02:07:05.607Z,0.00
2018-07-21T02:08:05.792Z,0.00
2018-07-21T02:09:05.966Z,0.00
2018-07-21T02:10:06.144Z,0.00
2018-07-21T02:11:06.316Z,0.00
2018-07-21T02:12:06.489Z,0.00
2018-07-21T02:13:06.668Z,0.00
2018-07-21T02:14:06.847Z,0.00
2018-07-21T02:15:07.029Z,0.00
2018-07-21T02:16:07.198Z,0.00
2018-07-21T02:17:07.387Z,0.00
2018-07-21T02:18:07.550Z,0.00
2018-07-21T02:19:07.730Z,0.00
2018-07-21T02:20:07.903Z,0.00
2018-07-21T02:21:08.081Z,0.00
2018-07-21T02:22:08.265Z,0.00
2018-07-21T02:23:08.446Z,0.00
2018-07-21T02:24:08.625Z,0.00
2018-07-21T02:25:08.797Z,0.00
2018-07-21T02:26:08.982Z,0.00
2018-07-21T02:27:09.157Z,0.00
2018-07-21T02:28:09.328Z,0.00
2018-07-21T02:29:09.509Z,0.00
2018-07-21T02:30:09.689Z,0.00
2018-07-21T02:31:09.866Z,0.00
2018-07-21T02:32:10.104Z,0.00
2018-07-21T02:33:10.222Z,0.00
2018-07-21T02:34:10.403Z,0.00
2018-07-21T02:35:10.581Z,0.00
2018-07-21T02:36:10.760Z,0.00
2018-07-21T02:37:10.941Z,0.00
2018-07-21T02:38:11.118Z,0.00
2018-07-21T02:39:11.291Z,0.00
2018-07-21T02:40:11.472Z,0.00
2018-07-21T02:41:11.650Z,0.00
2018-07-21T02:42:13.073Z,0.00
2018-07-21T02:43:11.964Z,0.00
2018-07-21T02:44:12.139Z,0.00
2018-07-21T02:45:12.320Z,0.00
2018-07-21T02:46:12.504Z,0.00
2018-07-21T02:47:12.676Z,0.00
2018-07-21T02:48:12.854Z,0.00
2018-07-21T02:49:13.034Z,0.00
2018-07-21T02:50:13.208Z,0.00
2018-07-21T02:51:13.386Z,0.00
2018-07-21T02:52:13.565Z,0.00
2018-07-21T02:53:13.750Z,0.00
2018-07-21T02:54:13.921Z,0.00
2018-07-21T02:55:14.104Z,0.00
2018-07-21T02:56:14.277Z,0.00
2018-07-21T02:57:14.452Z,4.00
2018-07-21T02:58:14.628Z,4.00
2018-07-21T02:59:14.807Z,4.00
2018-07-21T03:00:14.979Z,0.00
2018-07-21T03:01:15.148Z,4.00
2018-07-21T03:02:15.324Z,4.00
2018-07-21T03:03:15.506Z,4.00
2018-07-21T03:04:15.689Z,4.00
2018-07-21T03:05:15.862Z,4.00
2018-07-21T03:06:16.041Z,4.00
2018-07-21T03:07:16.219Z,8.00
2018-07-21T03:08:16.398Z,8.00
2018-07-21T03:09:16.573Z,12.00
2018-07-21T03:10:16.748Z,12.00
2018-07-21T03:11:16.923Z,12.00
2018-07-21T03:12:17.108Z,12.00
2018-07-21T03:13:17.283Z,12.00
2018-07-21T03:14:17.467Z,16.00
2018-07-21T03:15:17.640Z,20.00
2018-07-21T03:16:17.817Z,24.00
2018-07-21T03:17:17.988Z,24.00
2018-07-21T03:18:18.166Z,24.00
2018-07-21T03:19:18.341Z,28.00
2018-07-21T03:20:18.517Z,28.00
2018-07-21T03:21:18.699Z,28.00
2018-07-21T03:22:18.870Z,32.00
2018-07-21T03:23:19.148Z,36.00
2018-07-21T03:24:19.231Z,36.00
2018-07-21T03:25:19.411Z,36.00
2018-07-21T03:26:19.587Z,40.00
2018-07-21T03:27:19.760Z,40.00
2018-07-21T03:28:19.938Z,44.00
2018-07-21T03:29:20.112Z,48.00
2018-07-21T03:30:20.294Z,52.00
2018-07-21T03:31:20.464Z,56.00
2018-07-21T03:32:20.646Z,64.00
2018-07-21T03:33:20.834Z,68.00
2018-07-21T03:34:21.008Z,76.00
2018-07-21T03:35:21.187Z,84.00
2018-07-21T03:36:21.364Z,92.00
2018-07-21T03:37:21.545Z,104.00
2018-07-21T03:38:21.716Z,116.00
2018-07-21T03:39:21.890Z,120.00
2018-07-21T03:40:22.077Z,128.00
2018-07-21T03:41:22.249Z,136.00
2018-07-21T03:42:22.431Z,148.00
2018-07-21T03:43:22.603Z,160.00
2018-07-21T03:44:22.780Z,176.00
2018-07-21T03:45:22.961Z,200.00
2018-07-21T03:46:23.132Z,224.00
2018-07-21T03:47:23.314Z,248.00
2018-07-21T03:48:23.497Z,272.00
2018-07-21T03:49:23.670Z,300.00
2018-07-21T03:50:23.854Z,328.00
2018-07-21T03:51:24.027Z,360.00
2018-07-21T03:52:24.215Z,384.00
2018-07-21T03:53:24.391Z,416.00
2018-07-21T03:54:24.574Z,444.00
2018-07-21T03:55:24.745Z,472.00
2018-07-21T03:56:24.928Z,508.00
2018-07-21T03:57:25.107Z,540.00
2018-07-21T03:58:25.285Z,576.00
2018-07-21T03:59:25.479Z,616.00
2018-07-21T04:00:25.700Z,656.00
2018-07-21T04:01:25.822Z,700.00
2018-07-21T04:02:25.998Z,744.00
2018-07-21T04:03:26.175Z,780.00
2018-07-21T04:04:26.356Z,808.00
2018-07-21T04:05:26.527Z,848.00
2018-07-21T04:06:26.706Z,892.00
2018-07-21T04:07:26.884Z,948.00
2018-07-21T04:08:27.062Z,1004.00
2018-07-21T04:09:27.240Z,1048.00
2018-07-21T04:10:27.413Z,1080.00
2018-07-21T04:11:27.590Z,1108.00
2018-07-21T04:12:27.773Z,1140.00
2018-07-21T04:13:27.952Z,1172.00
2018-07-21T04:14:28.136Z,1204.00
2018-07-21T04:15:28.321Z,1228.00
2018-07-21T04:16:28.567Z,1268.00
2018-07-21T04:17:28.675Z,1312.00
2018-07-21T04:18:28.851Z,1368.00
2018-07-21T04:19:29.028Z,1424.00
2018-07-21T04:20:29.214Z,1476.00
2018-07-21T04:21:31.765Z,1528.00
2018-07-21T04:22:29.605Z,1568.00
2018-07-21T04:23:29.600Z,1588.00
2018-07-21T04:24:29.777Z,1608.00
2018-07-21T04:25:29.952Z,1644.00
2018-07-21T04:26:30.133Z,1692.00
2018-07-21T04:27:30.336Z,1744.00
2018-07-21T04:28:30.510Z,1804.00
2018-07-21T04:29:30.691Z,1872.00
2018-07-21T04:30:30.859Z,1936.00
2018-07-21T04:31:31.039Z,2008.00
2018-07-21T04:32:31.220Z,2080.00
2018-07-21T04:33:31.393Z,2144.00
2018-07-21T04:34:31.572Z,2204.00
2018-07-21T04:35:31.750Z,2264.00
2018-07-21T04:36:31.924Z,2324.00
2018-07-21T04:37:32.104Z,2380.00
2018-07-21T04:38:32.295Z,2428.00
2018-07-21T04:39:32.467Z,2476.00
2018-07-21T04:40:32.647Z,2520.00
2018-07-21T04:41:32.826Z,2552.00
2018-07-21T04:42:33.016Z,2592.00
2018-07-21T04:43:33.187Z,2644.00
2018-07-21T04:44:33.368Z,2704.00
2018-07-21T04:45:33.551Z,2756.00
2018-07-21T04:46:33.725Z,2796.00
2018-07-21T04:47:33.899Z,2816.00
2018-07-21T04:48:34.077Z,2848.00
2018-07-21T04:49:34.256Z,2892.00
2018-07-21T04:50:34.443Z,2948.00
2018-07-21T04:51:34.630Z,3012.00
2018-07-21T04:52:34.806Z,3104.00
2018-07-21T04:53:34.990Z,3204.00
2018-07-21T04:54:35.169Z,3292.00
2018-07-21T04:55:35.356Z,3364.00
2018-07-21T04:56:35.544Z,3420.00
2018-07-21T04:57:35.713Z,3476.00
2018-07-21T04:58:35.896Z,3524.00
2018-07-21T04:59:36.079Z,3584.00
2018-07-21T05:00:36.270Z,3632.00
2018-07-21T05:01:36.465Z,3676.00
2018-07-21T05:02:36.708Z,3732.00
2018-07-21T05:03:36.855Z,3816.00
2018-07-21T05:04:37.118Z,3904.00
2018-07-21T05:05:37.233Z,3988.00
2018-07-21T05:06:37.302Z,4048.00
2018-07-21T05:07:37.476Z,4072.00
2018-07-21T05:08:37.715Z,4064.00
2018-07-21T05:09:37.867Z,4036.00
2018-07-21T05:10:38.051Z,3992.00
2018-07-21T05:11:38.231Z,3992.00
2018-07-21T05:12:38.414Z,4036.00
2018-07-21T05:13:38.597Z,4084.00
2018-07-21T05:14:38.892Z,4264.00
2018-07-21T05:15:38.898Z,4564.00
2018-07-21T05:16:39.107Z,4808.00
2018-07-21T05:17:39.287Z,4952.00
2018-07-21T05:18:39.471Z,5056.00
2018-07-21T05:19:39.706Z,5096.00
2018-07-21T05:20:39.806Z,5120.00
2018-07-21T05:21:39.878Z,5172.00
2018-07-21T05:22:40.938Z,5292.00
2018-07-21T05:23:40.191Z,5428.00
2018-07-21T05:24:40.706Z,5548.00
2018-07-21T05:25:41.827Z,5612.00
2018-07-21T05:26:42.009Z,5640.00
2018-07-21T05:27:42.978Z,5704.00
2018-07-21T05:28:42.500Z,5848.00
2018-07-21T05:29:41.168Z,6060.00
2018-07-21T05:30:43.376Z,6292.00
2018-07-21T05:31:41.562Z,6524.00
2018-07-21T05:32:41.745Z,6696.00
2018-07-21T05:33:41.909Z,6880.00
2018-07-21T05:34:42.128Z,7064.00
2018-07-21T05:35:42.339Z,7164.00
2018-07-21T05:36:42.490Z,7200.00
2018-07-21T05:37:42.711Z,7168.00
2018-07-21T05:38:42.855Z,7148.00
2018-07-21T05:39:43.026Z,7204.00
2018-07-21T05:40:43.216Z,7340.00
2018-07-21T05:41:43.404Z,7264.00
2018-07-21T05:42:43.588Z,7128.00
2018-07-21T05:43:43.776Z,6940.00
2018-07-21T05:44:43.958Z,6756.00
2018-07-21T05:45:44.141Z,6684.00
2018-07-21T05:46:44.326Z,6468.00
2018-07-21T05:47:44.521Z,6308.00
2018-07-21T05:48:44.689Z,6284.00
2018-07-21T05:49:44.866Z,6632.00
2018-07-21T05:50:45.049Z,7164.00
2018-07-21T05:51:45.236Z,7592.00
2018-07-21T05:52:45.442Z,7812.00
2018-07-21T05:53:45.662Z,7952.00
2018-07-21T05:54:45.726Z,8000.00
2018-07-21T05:55:45.911Z,8048.00
2018-07-21T05:56:46.096Z,8148.00
2018-07-21T05:57:46.277Z,8244.00
2018-07-21T05:58:46.476Z,8372.00
2018-07-21T05:59:46.668Z,8388.00
2018-07-21T06:00:46.848Z,8524.00
2018-07-21T06:01:47.034Z,8528.00
2018-07-21T06:02:47.248Z,8776.00
2018-07-21T06:03:47.400Z,9236.00
2018-07-21T06:04:47.576Z,9664.00
2018-07-21T06:05:47.749Z,10044.00
2018-07-21T06:06:47.950Z,10564.00
2018-07-21T06:07:48.115Z,11000.00
2018-07-21T06:08:48.348Z,11452.00
2018-07-21T06:09:48.614Z,12416.00
2018-07-21T06:10:48.649Z,17856.00
2018-07-21T06:11:48.834Z,33120.00
2018-07-21T06:12:49.017Z,51040.00
2018-07-21T06:13:49.200Z,56320.00
2018-07-21T06:14:49.383Z,57792.00
2018-07-21T06:15:49.564Z,49632.00
2018-07-21T06:16:49.754Z,49184.00
2018-07-21T06:17:49.935Z,50944.00
2018-07-21T06:18:50.120Z,53056.00
2018-07-21T06:19:50.335Z,51936.00
2018-07-21T06:20:50.478Z,50688.00
2018-07-21T06:21:50.664Z,49120.00
2018-07-21T06:22:50.837Z,60736.00
2018-07-21T06:23:51.026Z,61504.00
2018-07-21T06:24:51.203Z,59776.00
2018-07-21T06:25:51.397Z,51712.00
2018-07-21T06:26:51.577Z,38592.00
2018-07-21T06:27:51.764Z,53920.00
2018-07-21T06:28:51.953Z,50528.00
2018-07-21T06:29:52.134Z,43744.00
2018-07-21T06:30:52.319Z,49152.00
2018-07-21T06:31:52.508Z,47104.00
2018-07-21T06:32:52.700Z,47776.00
2018-07-21T06:33:52.880Z,50432.00
2018-07-21T06:34:53.065Z,46720.00
2018-07-21T06:35:53.247Z,48608.00
2018-07-21T06:36:53.436Z,45024.00
2018-07-21T06:37:53.622Z,50272.00
2018-07-21T06:38:53.810Z,44736.00
2018-07-21T06:39:53.998Z,38720.00
2018-07-21T06:40:54.174Z,37312.00
2018-07-21T06:41:54.358Z,36352.00
2018-07-21T06:42:54.541Z,32896.00
2018-07-21T06:43:54.731Z,31040.00
2018-07-21T06:44:54.913Z,30688.00
2018-07-21T06:45:55.099Z,32416.00
2018-07-21T06:46:55.289Z,32288.00
2018-07-21T06:47:55.472Z,41440.00
2018-07-21T06:48:55.653Z,47712.00
2018-07-21T06:49:55.850Z,40448.00
2018-07-21T06:50:56.034Z,47840.00
2018-07-21T06:51:56.215Z,48352.00
2018-07-21T06:52:56.404Z,45376.00
2018-07-21T06:53:56.590Z,44608.00
2018-07-21T06:54:56.782Z,39264.00
2018-07-21T06:55:56.979Z,37792.00
2018-07-21T06:56:57.158Z,34976.00
2018-07-21T06:57:57.376Z,27136.00
2018-07-21T06:58:57.586Z,19808.00
2018-07-21T06:59:57.874Z,17312.00
2018-07-21T07:00:57.914Z,17024.00
2018-07-21T07:01:58.099Z,17632.00
2018-07-21T07:02:58.285Z,17920.00
2018-07-21T07:03:58.465Z,18816.00
2018-07-21T07:04:58.669Z,19264.00
2018-07-21T07:05:58.853Z,19136.00
2018-07-21T07:06:59.086Z,19328.00
2018-07-21T07:07:59.231Z,23264.00
2018-07-21T07:08:59.407Z,37312.00
2018-07-21T07:09:59.605Z,42496.00
2018-07-21T07:10:59.785Z,39680.00
2018-07-21T07:11:59.966Z,44448.00
2018-07-21T07:13:05.128Z,49504.00
2018-07-21T07:14:00.287Z,50560.00
2018-07-21T07:15:00.470Z,58304.00
2018-07-21T07:16:00.653Z,56224.00
2018-07-21T07:17:00.836Z,55552.00
2018-07-21T07:18:01.023Z,50432.00
2018-07-21T07:19:01.217Z,48416.00
2018-07-21T07:20:01.434Z,49216.00
2018-07-21T07:21:03.117Z,45920.00
2018-07-21T07:22:01.909Z,42496.00
2018-07-21T07:23:02.221Z,43712.00
2018-07-21T07:24:05.586Z,45152.00
2018-07-21T07:25:03.052Z,40288.00
2018-07-21T07:26:04.441Z,41792.00
2018-07-21T07:27:03.460Z,37632.00
2018-07-21T07:28:02.988Z,38720.00
2018-07-21T07:29:04.617Z,39008.00
2018-07-21T07:30:03.545Z,30016.00
2018-07-21T07:31:05.233Z,28992.00
2018-07-21T07:32:04.765Z,25792.00
2018-07-21T07:33:04.915Z,20448.00
2018-07-21T07:34:04.771Z,25120.00
2018-07-21T07:35:05.045Z,26368.00
2018-07-21T07:36:05.147Z,29696.00
2018-07-21T07:37:05.364Z,32704.00
2018-07-21T07:38:05.583Z,32544.00
2018-07-21T07:39:05.916Z,30816.00
2018-07-21T07:40:06.116Z,30656.00
2018-07-21T07:41:06.468Z,28320.00
2018-07-21T07:42:06.227Z,35552.00
2018-07-21T07:43:06.273Z,34528.00
2018-07-21T07:44:06.665Z,35360.00
2018-07-21T07:45:06.963Z,31904.00
2018-07-21T07:46:06.666Z,25920.00
2018-07-21T07:47:06.315Z,21792.00
2018-07-21T07:48:06.497Z,17760.00
2018-07-21T07:49:06.606Z,17280.00
2018-07-21T07:50:06.843Z,17248.00
2018-07-21T07:51:07.226Z,15344.00
2018-07-21T07:52:07.374Z,13480.00
2018-07-21T07:53:07.205Z,11888.00
2018-07-21T07:54:07.494Z,10492.00
2018-07-21T07:55:07.912Z,9912.00
2018-07-21T07:56:07.972Z,8504.00
2018-07-21T07:57:08.121Z,9388.00
2018-07-21T07:58:08.156Z,10272.00
2018-07-21T07:59:08.324Z,10864.00
2018-07-21T08:00:08.531Z,11676.00
2018-07-21T08:01:09.364Z,12356.00
2018-07-21T08:02:09.816Z,11280.00
2018-07-21T08:03:10.018Z,11276.00
2018-07-21T08:04:11.466Z,11472.00
2018-07-21T08:05:10.895Z,11468.00
2018-07-21T08:06:10.650Z,11776.00
2018-07-21T08:07:10.971Z,13332.00
2018-07-21T08:08:12.676Z,13300.00
2018-07-21T08:09:11.998Z,11640.00
2018-07-21T08:10:10.476Z,9256.00
2018-07-21T08:11:11.825Z,7224.00
2018-07-21T08:12:12.066Z,6516.00
2018-07-21T08:13:12.418Z,5260.00
2018-07-21T08:14:12.387Z,5056.00
2018-07-21T08:15:12.734Z,4612.00
2018-07-21T08:16:11.503Z,4480.00
2018-07-21T08:17:12.454Z,4372.00
2018-07-21T08:18:13.222Z,4284.00
2018-07-21T08:19:13.120Z,4220.00
2018-07-21T08:20:13.780Z,4176.00
2018-07-21T08:21:12.963Z,4148.00
2018-07-21T08:22:12.928Z,4132.00
2018-07-21T08:23:14.809Z,4144.00
2018-07-21T08:24:15.276Z,4168.00
2018-07-21T08:25:12.947Z,4216.00
2018-07-21T08:26:14.085Z,4300.00
2018-07-21T08:27:13.237Z,4396.00
2018-07-21T08:28:13.961Z,4504.00
2018-07-21T08:29:14.103Z,4632.00
2018-07-21T08:30:15.021Z,4788.00
2018-07-21T08:31:15.000Z,4956.00
2018-07-21T08:32:15.998Z,5152.00
2018-07-21T08:33:15.911Z,5384.00
2018-07-21T08:34:14.986Z,5620.00
2018-07-21T08:35:17.795Z,6212.00
2018-07-21T08:36:18.699Z,6396.00
2018-07-21T08:37:17.015Z,6716.00
2018-07-21T08:38:17.020Z,7312.00
2018-07-21T08:39:15.223Z,7792.00
2018-07-21T08:40:15.378Z,7548.00
2018-07-21T08:41:15.817Z,7624.00
2018-07-21T08:42:16.017Z,7284.00
2018-07-21T08:43:15.884Z,7016.00
2018-07-21T08:44:16.089Z,7016.00
2018-07-21T08:45:16.507Z,7096.00
2018-07-21T08:46:18.570Z,7060.00
2018-07-21T08:47:16.948Z,7028.00
2018-07-21T08:48:17.197Z,6816.00
2018-07-21T08:49:18.300Z,6744.00
2018-07-21T08:50:17.628Z,6524.00
2018-07-21T08:51:17.429Z,6296.00
2018-07-21T08:52:17.614Z,6168.00
2018-07-21T08:53:17.797Z,6036.00
2018-07-21T08:54:17.982Z,5936.00
2018-07-21T08:55:18.177Z,5912.00
2018-07-21T08:56:18.967Z,5812.00
2018-07-21T08:57:18.527Z,5848.00
2018-07-21T08:58:18.711Z,5888.00
2018-07-21T08:59:18.898Z,5980.00
2018-07-21T09:00:19.085Z,6092.00
2018-07-21T09:01:19.266Z,6188.00
2018-07-21T09:02:19.448Z,6384.00
2018-07-21T09:03:19.627Z,6368.00
2018-07-21T09:04:19.807Z,6296.00
2018-07-21T09:05:19.989Z,6240.00
2018-07-21T09:06:20.176Z,6160.00
2018-07-21T09:07:20.478Z,6092.00
2018-07-21T09:08:21.252Z,5992.00
2018-07-21T09:09:20.606Z,5932.00
2018-07-21T09:10:21.004Z,5960.00
2018-07-21T09:11:21.093Z,6024.00
2018-07-21T09:12:21.386Z,6116.00
2018-07-21T09:13:21.595Z,6204.00
2018-07-21T09:14:21.611Z,6272.00
2018-07-21T09:15:22.108Z,6388.00
2018-07-21T09:16:22.287Z,6524.00
2018-07-21T09:17:22.091Z,6648.00
2018-07-21T09:18:22.433Z,6768.00
2018-07-21T09:19:22.439Z,6892.00
2018-07-21T09:20:23.395Z,7036.00
2018-07-21T09:21:23.065Z,7184.00
2018-07-21T09:22:22.902Z,7340.00
2018-07-21T09:23:23.092Z,7528.00
2018-07-21T09:24:23.291Z,7756.00
2018-07-21T09:25:23.479Z,8020.00
2018-07-21T09:26:23.656Z,8332.00
2018-07-21T09:27:24.236Z,8556.00
2018-07-21T09:28:24.608Z,8692.00
2018-07-21T09:29:24.332Z,8752.00
2018-07-21T09:30:24.507Z,8740.00
2018-07-21T09:31:24.724Z,8728.00
2018-07-21T09:32:25.163Z,8672.00
2018-07-21T09:33:25.083Z,8580.00
2018-07-21T09:34:25.716Z,8440.00
2018-07-21T09:35:25.147Z,8308.00
2018-07-21T09:36:25.362Z,8260.00
2018-07-21T09:37:25.548Z,8216.00
2018-07-21T09:38:25.723Z,8168.00
2018-07-21T09:39:25.920Z,8036.00
2018-07-21T09:40:26.083Z,7968.00
2018-07-21T09:41:26.267Z,7992.00
2018-07-21T09:42:26.447Z,8324.00
2018-07-21T09:43:26.623Z,8480.00
2018-07-21T09:44:26.818Z,7664.00
2018-07-21T09:45:27.049Z,7380.00
2018-07-21T09:46:27.116Z,7212.00
2018-07-21T09:47:27.299Z,7048.00
2018-07-21T09:48:27.500Z,7016.00
2018-07-21T09:49:27.683Z,6908.00
2018-07-21T09:50:27.867Z,6752.00
2018-07-21T09:51:28.302Z,6600.00
2018-07-21T09:52:28.201Z,6488.00
2018-07-21T09:53:28.390Z,6444.00
2018-07-21T09:54:28.571Z,6484.00
2018-07-21T09:55:28.747Z,6532.00
2018-07-21T09:56:28.932Z,6588.00
2018-07-21T09:57:29.129Z,6660.00
2018-07-21T09:58:29.363Z,6780.00
2018-07-21T09:59:29.509Z,6880.00
2018-07-21T10:00:29.716Z,6896.00
2018-07-21T10:01:30.004Z,6924.00
2018-07-21T10:02:30.084Z,6912.00
2018-07-21T10:03:30.277Z,6824.00
2018-07-21T10:04:30.498Z,6692.00
2018-07-21T10:05:30.599Z,6544.00
2018-07-21T10:06:30.823Z,6412.00
2018-07-21T10:07:30.913Z,6244.00
2018-07-21T10:08:31.107Z,6072.00
2018-07-21T10:09:31.291Z,5936.00
2018-07-21T10:10:31.492Z,5824.00
2018-07-21T10:11:35.754Z,5652.00
2018-07-21T10:12:32.049Z,5444.00
2018-07-21T10:13:32.358Z,5224.00
2018-07-21T10:14:32.466Z,5088.00
2018-07-21T10:15:32.617Z,5036.00
2018-07-21T10:16:32.817Z,5036.00
2018-07-21T10:17:33.017Z,5036.00
2018-07-21T10:18:32.794Z,5024.00
2018-07-21T10:19:33.001Z,5004.00
2018-07-21T10:20:33.212Z,4936.00
2018-07-21T10:21:33.407Z,4812.00
2018-07-21T10:22:33.706Z,4680.00
2018-07-21T10:23:33.746Z,4584.00
2018-07-21T10:24:33.972Z,4500.00
2018-07-21T10:25:34.065Z,4444.00
2018-07-21T10:26:34.251Z,4396.00
2018-07-21T10:27:34.435Z,4372.00
2018-07-21T10:28:34.646Z,4364.00
2018-07-21T10:29:37.432Z,4340.00
2018-07-21T10:30:37.040Z,4288.00
2018-07-21T10:31:37.398Z,4220.00
2018-07-21T10:32:37.902Z,4084.00
2018-07-21T10:33:36.568Z,3936.00
2018-07-21T10:34:39.600Z,3800.00
2018-07-21T10:35:38.173Z,3692.00
2018-07-21T10:36:40.407Z,3568.00
2018-07-21T10:37:40.758Z,3400.00
2018-07-21T10:38:42.111Z,3236.00
2018-07-21T10:39:39.811Z,3128.00
2018-07-21T10:40:37.108Z,3100.00
2018-07-21T10:41:37.209Z,3108.00
2018-07-21T10:42:37.037Z,3148.00
2018-07-21T10:43:37.221Z,3200.00
2018-07-21T10:44:37.454Z,3268.00
2018-07-21T10:45:37.595Z,3372.00
2018-07-21T10:46:37.771Z,3512.00
2018-07-21T10:47:37.958Z,3668.00
2018-07-21T10:48:38.142Z,3836.00
2018-07-21T10:49:38.323Z,4000.00
2018-07-21T10:50:38.524Z,4136.00
2018-07-21T10:51:38.693Z,4208.00
2018-07-21T10:52:38.872Z,4244.00
2018-07-21T10:53:39.057Z,4268.00
2018-07-21T10:54:39.249Z,4256.00
2018-07-21T10:55:39.449Z,4232.00
2018-07-21T10:56:39.622Z,4184.00
2018-07-21T10:57:39.794Z,4136.00
2018-07-21T10:58:39.978Z,4104.00
2018-07-21T10:59:40.172Z,4084.00
2018-07-21T11:00:40.333Z,4068.00
2018-07-21T11:01:40.519Z,4056.00
2018-07-21T11:02:40.714Z,4044.00
2018-07-21T11:03:40.899Z,4084.00
2018-07-21T11:04:41.144Z,4180.00
2018-07-21T11:05:41.257Z,4308.00
2018-07-21T11:06:41.436Z,4468.00
2018-07-21T11:07:41.615Z,4640.00
2018-07-21T11:08:41.803Z,4824.00
2018-07-21T11:09:41.986Z,4980.00
2018-07-21T11:10:42.162Z,5060.00
2018-07-21T11:11:42.342Z,5084.00
2018-07-21T11:12:42.576Z,5068.00
2018-07-21T11:13:42.746Z,5004.00
2018-07-21T11:14:42.925Z,4912.00
2018-07-21T11:15:43.105Z,4832.00
2018-07-21T11:16:43.289Z,4784.00
2018-07-21T11:17:43.468Z,4696.00
2018-07-21T11:18:43.648Z,4576.00
2018-07-21T11:19:43.825Z,4488.00
2018-07-21T11:20:44.011Z,4464.00
2018-07-21T11:21:44.289Z,4480.00
2018-07-21T11:22:44.349Z,4544.00
2018-07-21T11:23:44.548Z,4636.00
2018-07-21T11:24:44.810Z,4760.00
2018-07-21T11:25:44.904Z,4864.00
2018-07-21T11:26:45.169Z,4948.00
2018-07-21T11:27:45.381Z,5032.00
2018-07-21T11:28:45.364Z,5128.00
2018-07-21T11:29:45.539Z,5220.00
2018-07-21T11:30:45.718Z,5328.00
2018-07-21T11:31:45.893Z,5452.00
2018-07-21T11:32:46.084Z,5608.00
2018-07-21T11:33:46.273Z,5792.00
2018-07-21T11:34:46.453Z,5996.00
2018-07-21T11:35:46.780Z,6220.00
2018-07-21T11:36:46.819Z,6440.00
2018-07-21T11:37:47.006Z,6624.00
2018-07-21T11:38:47.186Z,6788.00
2018-07-21T11:39:47.442Z,6900.00
2018-07-21T11:40:47.672Z,6956.00
2018-07-21T11:41:47.881Z,6960.00
2018-07-21T11:42:48.162Z,6976.00
2018-07-21T11:43:48.129Z,7000.00
2018-07-21T11:44:48.276Z,7040.00
2018-07-21T11:45:48.461Z,7064.00
2018-07-21T11:46:48.638Z,7052.00
2018-07-21T11:47:48.891Z,6976.00
2018-07-21T11:48:48.950Z,6844.00
2018-07-21T11:49:49.144Z,6672.00
2018-07-21T11:50:49.319Z,6488.00
2018-07-21T11:51:49.496Z,6352.00
2018-07-21T11:52:49.687Z,6252.00
2018-07-21T11:53:49.893Z,6128.00
2018-07-21T11:54:50.077Z,6028.00
2018-07-21T11:55:50.257Z,5984.00
2018-07-21T11:56:50.432Z,5924.00
2018-07-21T11:57:50.614Z,5860.00
2018-07-21T11:58:50.792Z,5788.00
2018-07-21T11:59:50.980Z,5748.00
2018-07-21T12:00:51.164Z,5740.00
2018-07-21T12:01:51.355Z,5772.00
2018-07-21T12:02:51.535Z,5852.00
2018-07-21T12:03:51.727Z,5924.00
2018-07-21T12:04:51.931Z,5992.00
2018-07-21T12:05:52.118Z,6040.00
2018-07-21T12:06:52.299Z,6064.00
2018-07-21T12:07:52.477Z,6088.00
2018-07-21T12:08:52.657Z,6060.00
2018-07-21T12:09:52.835Z,5956.00
2018-07-21T12:10:53.017Z,5832.00
2018-07-21T12:11:53.195Z,5704.00
2018-07-21T12:12:53.408Z,5620.00
2018-07-21T12:13:53.561Z,5604.00
2018-07-21T12:14:53.747Z,5648.00
2018-07-21T12:15:54.009Z,5740.00
2018-07-21T12:16:54.122Z,5816.00
2018-07-21T12:17:54.305Z,5868.00
2018-07-21T12:18:54.493Z,5904.00
2018-07-21T12:19:54.698Z,5928.00
2018-07-21T12:20:54.864Z,5964.00
2018-07-21T12:21:55.048Z,5976.00
2018-07-21T12:22:55.229Z,5972.00
2018-07-21T12:23:55.409Z,5980.00